Terminal Aerodrome Forecast
Issued by NWS Cleveland, OH

Home | Current Version | Previous Version | Text Only | Print | Product List | Glossary Off
Versions: 1 2 3 4 5 6 7 8 9 10 11 12 13 14 15 16 17 18 19 20 21 22 23 24 25 26 27 28 29

000
FTUS41 KCLE 191253 AAA
TAFERI
TAF AMD
KERI 191253Z 1913/2012 24007KT 6SM BR OVC007
      TEMPO 1913/1915 OVC012
     FM191500 26007KT P6SM OVC012
     FM192100 21005KT P6SM BKN100 OVC250
     FM200000 14007KT P6SM OVC100=

USA.gov is the U.S. government's official web portal to all federal, state and local government web resources and services.